METAR Data
IDs: Format: Raw Decoded Include TAF

Data at: 0940 UTC 11 May 2021

EGNJ 110920Z 21009KT 9999 FEW011 SCT030 13/09 Q1007